Jansen, Colorado
Current Conditions -  °F | °C
As of 11:19 AM on Monday 22 Dec 2014 (Local Time) from KTAD Reporting Station
Moderate Snow Moderate Snow  
Wind Chill: 23°   Ceiling: 1000
Heat Index: 30°   Visibility: 0.25mi
Dew Point: 29°   Wind: 7mph
Humidity: 96%   Direction: 160°SSE
Pressure: 29.76"   Gusts: NA
Location:  37.1661°N, 104.486°W
Report Text: KTAD 221819Z AUTO 16006KT 1/4SM SN FZFG FEW004 OVC010 M01/M02 A2976 RMK AO2 P0000 T10111017
Loading
Personal Weather Stations






























Interactive Weather Map New forecast layout! Learn more

10-Day Weather Forecast

Advertisements
Track Severe Weather on mobile